Paris, France
Current Conditions -  °F | °C
As of 6:30 AM on Thursday 27 Nov 2014 (Local Time) from LFPB Reporting Station
Moderate Fog Moderate Fog  
Wind Chill: 48°   Ceiling: Unl
Heat Index: 48°   Visibility: 0.12mi
Dew Point: 48°   Wind: 2mph
Humidity: 100%   Direction: 100°E
Pressure: 29.71"   Gusts: NA
Location:  48.86°N, 2.35°E
Report Text: LFPB 270530Z AUTO 10002KT 0200 R27/1400D R09/1200D R07/0800NFG VV/// 09/09 Q1006
Loading
Personal Weather Stations






























Interactive Weather Map New forecast layout! Learn more

10-Day Weather Forecast

Advertisements
Track Severe Weather on mobile